sensor_id;sensor_type;location;lat;lon;timestamp;temperature;humidity
39519;DHT22;25200;53.394;10.414;2023-07-13T00:00:27;20.00;63.40
39519;DHT22;25200;53.394;10.414;2023-07-13T00:02:54;19.90;63.70
39519;DHT22;25200;53.394;10.414;2023-07-13T00:05:23;20.00;63.50
39519;DHT22;25200;53.394;10.414;2023-07-13T00:07:50;19.90;63.50
39519;DHT22;25200;53.394;10.414;2023-07-13T00:10:17;19.90;63.70
39519;DHT22;25200;53.394;10.414;2023-07-13T00:12:43;19.90;63.60
39519;DHT22;25200;53.394;10.414;2023-07-13T00:15:18;19.90;63.50
39519;DHT22;25200;53.394;10.414;2023-07-13T00:17:49;19.80;63.50
39519;DHT22;25200;53.394;10.414;2023-07-13T00:20:15;19.80;63.70
39519;DHT22;25200;53.394;10.414;2023-07-13T00:22:41;19.80;63.80
39519;DHT22;25200;53.394;10.414;2023-07-13T00:25:11;19.70;64.10
39519;DHT22;25200;53.394;10.414;2023-07-13T00:27:37;19.70;64.20
39519;DHT22;25200;53.394;10.414;2023-07-13T00:30:04;19.60;64.20
39519;DHT22;25200;53.394;10.414;2023-07-13T00:32:30;19.60;63.90
39519;DHT22;25200;53.394;10.414;2023-07-13T00:34:57;19.50;64.20
39519;DHT22;25200;53.394;10.414;2023-07-13T00:37:23;19.50;64.20
39519;DHT22;25200;53.394;10.414;2023-07-13T00:39:49;19.50;63.90
39519;DHT22;25200;53.394;10.414;2023-07-13T00:42:15;19.40;63.90
39519;DHT22;25200;53.394;10.414;2023-07-13T00:44:40;19.40;63.90
39519;DHT22;25200;53.394;10.414;2023-07-13T00:47:06;19.30;63.80
39519;DHT22;25200;53.394;10.414;2023-07-13T00:49:33;19.30;64.10
39519;DHT22;25200;53.394;10.414;2023-07-13T00:52:08;19.30;64.00
39519;DHT22;25200;53.394;10.414;2023-07-13T00:54:46;19.20;64.20
39519;DHT22;25200;53.394;10.414;2023-07-13T00:57:17;19.20;64.30
39519;DHT22;25200;53.394;10.414;2023-07-13T00:59:47;19.10;64.10
39519;DHT22;25200;53.394;10.414;2023-07-13T01:02:13;19.10;64.10
39519;DHT22;25200;53.394;10.414;2023-07-13T01:04:38;19.10;64.10
39519;DHT22;25200;53.394;10.414;2023-07-13T01:07:06;19.00;63.90
39519;DHT22;25200;53.394;10.414;2023-07-13T01:09:32;19.00;64.50
39519;DHT22;25200;53.394;10.414;2023-07-13T01:11:58;19.00;63.90
39519;DHT22;25200;53.394;10.414;2023-07-13T01:14:24;18.90;63.90
39519;DHT22;25200;53.394;10.414;2023-07-13T01:16:50;18.90;64.20
39519;DHT22;25200;53.394;10.414;2023-07-13T01:19:33;18.80;64.00
39519;DHT22;25200;53.394;10.414;2023-07-13T01:22:09;18.80;64.40
39519;DHT22;25200;53.394;10.414;2023-07-13T01:24:37;18.70;64.10
39519;DHT22;25200;53.394;10.414;2023-07-13T01:27:04;18.70;64.30
39519;DHT22;25200;53.394;10.414;2023-07-13T01:29:32;18.60;64.30
39519;DHT22;25200;53.394;10.414;2023-07-13T01:31:58;18.60;64.20
39519;DHT22;25200;53.394;10.414;2023-07-13T01:34:26;18.60;64.40
39519;DHT22;25200;53.394;10.414;2023-07-13T01:36:52;18.60;65.70
39519;DHT22;25200;53.394;10.414;2023-07-13T01:39:20;18.50;66.50
39519;DHT22;25200;53.394;10.414;2023-07-13T01:41:46;18.40;67.10
39519;DHT22;25200;53.394;10.414;2023-07-13T01:44:11;18.40;67.40
39519;DHT22;25200;53.394;10.414;2023-07-13T01:46:37;18.30;67.50
39519;DHT22;25200;53.394;10.414;2023-07-13T01:49:03;18.30;66.10
39519;DHT22;25200;53.394;10.414;2023-07-13T01:51:28;18.20;67.40
39519;DHT22;25200;53.394;10.414;2023-07-13T01:53:54;18.20;67.80
39519;DHT22;25200;53.394;10.414;2023-07-13T01:56:20;18.20;67.00
39519;DHT22;25200;53.394;10.414;2023-07-13T01:58:46;18.10;68.20
39519;DHT22;25200;53.394;10.414;2023-07-13T02:01:12;18.00;68.10
39519;DHT22;25200;53.394;10.414;2023-07-13T02:03:37;18.00;68.50
39519;DHT22;25200;53.394;10.414;2023-07-13T02:06:03;18.00;67.80
39519;DHT22;25200;53.394;10.414;2023-07-13T02:08:29;17.90;68.70
39519;DHT22;25200;53.394;10.414;2023-07-13T02:10:54;17.90;68.80
39519;DHT22;25200;53.394;10.414;2023-07-13T02:13:20;17.90;68.80
39519;DHT22;25200;53.394;10.414;2023-07-13T02:15:45;17.80;69.10
39519;DHT22;25200;53.394;10.414;2023-07-13T02:18:11;17.80;68.90
39519;DHT22;25200;53.394;10.414;2023-07-13T02:20:39;17.80;69.20
39519;DHT22;25200;53.394;10.414;2023-07-13T02:23:05;17.70;69.40
39519;DHT22;25200;53.394;10.414;2023-07-13T02:25:31;17.70;68.30
39519;DHT22;25200;53.394;10.414;2023-07-13T02:27:56;17.70;69.50
39519;DHT22;25200;53.394;10.414;2023-07-13T02:30:22;17.70;69.40
39519;DHT22;25200;53.394;10.414;2023-07-13T02:32:50;17.60;69.40
39519;DHT22;25200;53.394;10.414;2023-07-13T02:35:16;17.60;69.30
39519;DHT22;25200;53.394;10.414;2023-07-13T02:37:41;17.60;69.80
39519;DHT22;25200;53.394;10.414;2023-07-13T02:40:07;17.60;69.90
39519;DHT22;25200;53.394;10.414;2023-07-13T02:42:34;17.50;70.00
39519;DHT22;25200;53.394;10.414;2023-07-13T02:44:59;17.50;69.90
39519;DHT22;25200;53.394;10.414;2023-07-13T02:47:25;17.50;69.30
39519;DHT22;25200;53.394;10.414;2023-07-13T02:49:52;17.50;69.90
39519;DHT22;25200;53.394;10.414;2023-07-13T02:52:18;17.50;70.20
39519;DHT22;25200;53.394;10.414;2023-07-13T02:54:43;17.40;69.80
39519;DHT22;25200;53.394;10.414;2023-07-13T02:57:09;17.40;70.10
39519;DHT22;25200;53.394;10.414;2023-07-13T02:59:35;17.40;70.20
39519;DHT22;25200;53.394;10.414;2023-07-13T03:02:02;17.40;69.70
39519;DHT22;25200;53.394;10.414;2023-07-13T03:04:28;17.40;70.10
39519;DHT22;25200;53.394;10.414;2023-07-13T03:06:53;17.30;70.10
39519;DHT22;25200;53.394;10.414;2023-07-13T03:09:23;17.30;70.30
39519;DHT22;25200;53.394;10.414;2023-07-13T03:11:48;17.30;70.30
39519;DHT22;25200;53.394;10.414;2023-07-13T03:14:14;17.30;70.30
39519;DHT22;25200;53.394;10.414;2023-07-13T03:16:40;17.20;70.40
39519;DHT22;25200;53.394;10.414;2023-07-13T03:19:05;17.20;70.40
39519;DHT22;25200;53.394;10.414;2023-07-13T03:21:31;17.20;70.60
39519;DHT22;25200;53.394;10.414;2023-07-13T03:23:57;17.20;70.00
39519;DHT22;25200;53.394;10.414;2023-07-13T03:26:22;17.20;70.60
39519;DHT22;25200;53.394;10.414;2023-07-13T03:28:48;17.20;70.30
39519;DHT22;25200;53.394;10.414;2023-07-13T03:31:17;17.20;70.10
39519;DHT22;25200;53.394;10.414;2023-07-13T03:33:44;17.10;70.40
39519;DHT22;25200;53.394;10.414;2023-07-13T03:36:13;17.10;70.60
39519;DHT22;25200;53.394;10.414;2023-07-13T03:38:39;17.10;71.00
39519;DHT22;25200;53.394;10.414;2023-07-13T03:41:05;17.10;70.90
39519;DHT22;25200;53.394;10.414;2023-07-13T03:43:31;17.10;70.70
39519;DHT22;25200;53.394;10.414;2023-07-13T03:45:56;17.10;70.70
39519;DHT22;25200;53.394;10.414;2023-07-13T03:48:22;17.10;70.60
39519;DHT22;25200;53.394;10.414;2023-07-13T03:50:48;17.10;70.90
39519;DHT22;25200;53.394;10.414;2023-07-13T03:53:15;17.10;70.60
39519;DHT22;25200;53.394;10.414;2023-07-13T03:55:40;17.10;70.80
39519;DHT22;25200;53.394;10.414;2023-07-13T04:00:52;17.10;71.20
39519;DHT22;25200;53.394;10.414;2023-07-13T04:03:18;17.10;70.90
39519;DHT22;25200;53.394;10.414;2023-07-13T04:05:43;17.10;70.90
39519;DHT22;25200;53.394;10.414;2023-07-13T04:08:09;17.10;70.70
39519;DHT22;25200;53.394;10.414;2023-07-13T04:10:34;17.10;70.70
39519;DHT22;25200;53.394;10.414;2023-07-13T04:13:00;17.10;71.20
39519;DHT22;25200;53.394;10.414;2023-07-13T04:15:28;17.10;71.00
39519;DHT22;25200;53.394;10.414;2023-07-13T04:17:54;17.10;71.20
39519;DHT22;25200;53.394;10.414;2023-07-13T04:20:20;17.10;71.00
39519;DHT22;25200;53.394;10.414;2023-07-13T04:22:47;17.20;69.50
39519;DHT22;25200;53.394;10.414;2023-07-13T04:25:12;17.20;70.40
39519;DHT22;25200;53.394;10.414;2023-07-13T04:27:38;17.20;68.30
39519;DHT22;25200;53.394;10.414;2023-07-13T04:30:06;17.30;67.60
39519;DHT22;25200;53.394;10.414;2023-07-13T04:32:32;17.40;67.50
39519;DHT22;25200;53.394;10.414;2023-07-13T04:34:58;17.40;67.00
39519;DHT22;25200;53.394;10.414;2023-07-13T04:37:25;17.50;67.10
39519;DHT22;25200;53.394;10.414;2023-07-13T04:39:51;17.60;66.70
39519;DHT22;25200;53.394;10.414;2023-07-13T04:42:17;17.70;66.70
39519;DHT22;25200;53.394;10.414;2023-07-13T04:44:48;17.80;66.50
39519;DHT22;25200;53.394;10.414;2023-07-13T04:47:14;17.80;66.50
39519;DHT22;25200;53.394;10.414;2023-07-13T04:49:40;17.90;66.40
39519;DHT22;25200;53.394;10.414;2023-07-13T04:52:06;18.00;66.30
39519;DHT22;25200;53.394;10.414;2023-07-13T04:54:35;18.00;66.30
39519;DHT22;25200;53.394;10.414;2023-07-13T04:57:03;18.10;65.90
39519;DHT22;25200;53.394;10.414;2023-07-13T04:59:32;18.10;66.00
39519;DHT22;25200;53.394;10.414;2023-07-13T05:01:57;18.20;66.00
39519;DHT22;25200;53.394;10.414;2023-07-13T05:04:23;18.20;66.20
39519;DHT22;25200;53.394;10.414;2023-07-13T05:06:49;18.30;66.10
39519;DHT22;25200;53.394;10.414;2023-07-13T05:09:14;18.30;66.40
39519;DHT22;25200;53.394;10.414;2023-07-13T05:11:40;18.30;65.90
39519;DHT22;25200;53.394;10.414;2023-07-13T05:14:05;18.30;65.90
39519;DHT22;25200;53.394;10.414;2023-07-13T05:16:31;18.30;66.20
39519;DHT22;25200;53.394;10.414;2023-07-13T05:18:58;18.30;66.50
39519;DHT22;25200;53.394;10.414;2023-07-13T05:21:23;18.30;66.70
39519;DHT22;25200;53.394;10.414;2023-07-13T05:23:49;18.30;66.40
39519;DHT22;25200;53.394;10.414;2023-07-13T05:26:15;18.30;66.30
39519;DHT22;25200;53.394;10.414;2023-07-13T05:28:41;18.30;66.60
39519;DHT22;25200;53.394;10.414;2023-07-13T05:31:08;18.30;66.20
39519;DHT22;25200;53.394;10.414;2023-07-13T05:33:34;18.30;66.30
39519;DHT22;25200;53.394;10.414;2023-07-13T05:36:00;18.20;66.30
39519;DHT22;25200;53.394;10.414;2023-07-13T05:38:28;18.20;66.80
39519;DHT22;25200;53.394;10.414;2023-07-13T05:40:55;18.20;66.70
39519;DHT22;25200;53.394;10.414;2023-07-13T05:43:22;18.20;66.50
39519;DHT22;25200;53.394;10.414;2023-07-13T05:45:48;18.20;66.70
39519;DHT22;25200;53.394;10.414;2023-07-13T05:48:15;18.20;66.90
39519;DHT22;25200;53.394;10.414;2023-07-13T05:50:41;18.30;67.10
39519;DHT22;25200;53.394;10.414;2023-07-13T05:53:06;18.30;66.90
39519;DHT22;25200;53.394;10.414;2023-07-13T05:55:33;18.30;66.90
39519;DHT22;25200;53.394;10.414;2023-07-13T05:57:59;18.30;67.30
39519;DHT22;25200;53.394;10.414;2023-07-13T06:00:26;18.30;66.70
39519;DHT22;25200;53.394;10.414;2023-07-13T06:02:52;18.30;66.80
39519;DHT22;25200;53.394;10.414;2023-07-13T06:05:17;18.30;67.00
39519;DHT22;25200;53.394;10.414;2023-07-13T06:07:43;18.30;67.00
39519;DHT22;25200;53.394;10.414;2023-07-13T06:10:09;18.30;67.00
39519;DHT22;25200;53.394;10.414;2023-07-13T06:12:35;18.30;67.00
39519;DHT22;25200;53.394;10.414;2023-07-13T06:15:00;18.30;66.80
39519;DHT22;25200;53.394;10.414;2023-07-13T06:17:26;18.30;66.50
39519;DHT22;25200;53.394;10.414;2023-07-13T06:19:52;18.40;66.90
39519;DHT22;25200;53.394;10.414;2023-07-13T06:22:17;18.40;66.70
39519;DHT22;25200;53.394;10.414;2023-07-13T06:24:43;18.40;66.90
39519;DHT22;25200;53.394;10.414;2023-07-13T06:27:09;18.40;66.90
39519;DHT22;25200;53.394;10.414;2023-07-13T06:29:34;18.50;67.10
39519;DHT22;25200;53.394;10.414;2023-07-13T06:32:00;18.50;66.60
39519;DHT22;25200;53.394;10.414;2023-07-13T06:34:26;18.50;66.80
39519;DHT22;25200;53.394;10.414;2023-07-13T06:36:51;18.60;67.10
39519;DHT22;25200;53.394;10.414;2023-07-13T06:39:17;18.60;66.90
39519;DHT22;25200;53.394;10.414;2023-07-13T06:41:43;18.70;67.10
39519;DHT22;25200;53.394;10.414;2023-07-13T06:44:08;18.70;67.30
39519;DHT22;25200;53.394;10.414;2023-07-13T06:46:34;18.70;66.90
39519;DHT22;25200;53.394;10.414;2023-07-13T06:49:00;18.70;67.00
39519;DHT22;25200;53.394;10.414;2023-07-13T06:51:25;18.70;67.10
39519;DHT22;25200;53.394;10.414;2023-07-13T06:53:51;18.70;67.00
39519;DHT22;25200;53.394;10.414;2023-07-13T06:56:17;18.80;67.10
39519;DHT22;25200;53.394;10.414;2023-07-13T06:58:43;18.80;66.80
39519;DHT22;25200;53.394;10.414;2023-07-13T07:01:09;18.80;67.10
39519;DHT22;25200;53.394;10.414;2023-07-13T07:03:35;18.80;66.90
39519;DHT22;25200;53.394;10.414;2023-07-13T07:06:03;18.80;67.10
39519;DHT22;25200;53.394;10.414;2023-07-13T07:08:31;18.80;67.20
39519;DHT22;25200;53.394;10.414;2023-07-13T07:10:57;18.90;67.10
39519;DHT22;25200;53.394;10.414;2023-07-13T07:13:22;18.90;67.00
39519;DHT22;25200;53.394;10.414;2023-07-13T07:15:50;18.90;67.20
39519;DHT22;25200;53.394;10.414;2023-07-13T07:18:15;18.90;66.70
39519;DHT22;25200;53.394;10.414;2023-07-13T07:20:41;19.00;66.90
39519;DHT22;25200;53.394;10.414;2023-07-13T07:23:07;19.00;66.80
39519;DHT22;25200;53.394;10.414;2023-07-13T07:25:32;19.00;67.00
39519;DHT22;25200;53.394;10.414;2023-07-13T07:28:00;19.10;66.80
39519;DHT22;25200;53.394;10.414;2023-07-13T07:30:26;19.10;67.00
39519;DHT22;25200;53.394;10.414;2023-07-13T07:32:51;19.20;66.60
39519;DHT22;25200;53.394;10.414;2023-07-13T07:35:17;19.30;66.80
39519;DHT22;25200;53.394;10.414;2023-07-13T07:37:42;19.40;67.30
39519;DHT22;25200;53.394;10.414;2023-07-13T07:40:08;19.50;66.70
39519;DHT22;25200;53.394;10.414;2023-07-13T07:42:34;19.60;66.50
39519;DHT22;25200;53.394;10.414;2023-07-13T07:45:00;19.70;66.70
39519;DHT22;25200;53.394;10.414;2023-07-13T07:47:26;19.80;66.70
39519;DHT22;25200;53.394;10.414;2023-07-13T07:49:52;20.00;66.60
39519;DHT22;25200;53.394;10.414;2023-07-13T07:52:18;20.10;66.90
39519;DHT22;25200;53.394;10.414;2023-07-13T07:54:44;20.10;66.10
39519;DHT22;25200;53.394;10.414;2023-07-13T07:57:09;20.20;65.90
39519;DHT22;25200;53.394;10.414;2023-07-13T07:59:36;20.20;65.90
39519;DHT22;25200;53.394;10.414;2023-07-13T08:02:02;20.20;65.70
39519;DHT22;25200;53.394;10.414;2023-07-13T08:04:28;20.20;65.80
39519;DHT22;25200;53.394;10.414;2023-07-13T08:06:54;20.20;65.70
39519;DHT22;25200;53.394;10.414;2023-07-13T08:09:21;20.30;65.70
39519;DHT22;25200;53.394;10.414;2023-07-13T08:11:47;20.30;65.70
39519;DHT22;25200;53.394;10.414;2023-07-13T08:14:13;20.40;65.60
39519;DHT22;25200;53.394;10.414;2023-07-13T08:16:39;20.40;65.80
39519;DHT22;25200;53.394;10.414;2023-07-13T08:19:05;20.40;65.90
39519;DHT22;25200;53.394;10.414;2023-07-13T08:21:31;20.50;65.60
39519;DHT22;25200;53.394;10.414;2023-07-13T08:23:57;20.50;65.50
39519;DHT22;25200;53.394;10.414;2023-07-13T08:26:23;20.60;65.60
39519;DHT22;25200;53.394;10.414;2023-07-13T08:28:49;20.60;65.40
39519;DHT22;25200;53.394;10.414;2023-07-13T08:31:14;20.60;65.20
39519;DHT22;25200;53.394;10.414;2023-07-13T08:33:40;20.60;65.20
39519;DHT22;25200;53.394;10.414;2023-07-13T08:36:06;20.70;65.30
39519;DHT22;25200;53.394;10.414;2023-07-13T08:38:32;20.80;65.60
39519;DHT22;25200;53.394;10.414;2023-07-13T08:40:59;20.80;65.30
39519;DHT22;25200;53.394;10.414;2023-07-13T08:43:35;20.80;65.20
39519;DHT22;25200;53.394;10.414;2023-07-13T08:48:36;20.80;65.00
39519;DHT22;25200;53.394;10.414;2023-07-13T08:54:03;20.80;65.00
39519;DHT22;25200;53.394;10.414;2023-07-13T08:56:31;20.80;64.90
39519;DHT22;25200;53.394;10.414;2023-07-13T08:59:15;20.90;65.00
39519;DHT22;25200;53.394;10.414;2023-07-13T09:04:59;21.00;64.80
39519;DHT22;25200;53.394;10.414;2023-07-13T09:10:36;21.10;64.90
39519;DHT22;25200;53.394;10.414;2023-07-13T09:15:53;21.50;65.00
39519;DHT22;25200;53.394;10.414;2023-07-13T09:18:30;21.70;65.00
39519;DHT22;25200;53.394;10.414;2023-07-13T09:21:11;21.80;64.40
39519;DHT22;25200;53.394;10.414;2023-07-13T09:23:38;21.90;64.00
39519;DHT22;25200;53.394;10.414;2023-07-13T09:28:41;22.30;64.00
39519;DHT22;25200;53.394;10.414;2023-07-13T09:31:09;22.30;63.70
39519;DHT22;25200;53.394;10.414;2023-07-13T09:33:38;22.40;63.50
39519;DHT22;25200;53.394;10.414;2023-07-13T09:38:43;22.90;63.70
39519;DHT22;25200;53.394;10.414;2023-07-13T09:41:50;23.10;63.50
39519;DHT22;25200;53.394;10.414;2023-07-13T09:44:26;23.40;62.90
39519;DHT22;25200;53.394;10.414;2023-07-13T09:46:54;23.60;62.80
39519;DHT22;25200;53.394;10.414;2023-07-13T09:49:25;23.90;62.30
39519;DHT22;25200;53.394;10.414;2023-07-13T09:51:58;24.00;62.10
39519;DHT22;25200;53.394;10.414;2023-07-13T09:54:26;24.20;61.40
39519;DHT22;25200;53.394;10.414;2023-07-13T09:56:59;24.50;62.00
39519;DHT22;25200;53.394;10.414;2023-07-13T09:59:30;24.70;61.20
39519;DHT22;25200;53.394;10.414;2023-07-13T10:01:56;25.00;61.70
39519;DHT22;25200;53.394;10.414;2023-07-13T10:04:33;25.30;61.40
39519;DHT22;25200;53.394;10.414;2023-07-13T10:07:08;25.50;60.60
39519;DHT22;25200;53.394;10.414;2023-07-13T10:09:34;25.80;61.30
39519;DHT22;25200;53.394;10.414;2023-07-13T10:12:00;26.10;60.20
39519;DHT22;25200;53.394;10.414;2023-07-13T10:14:26;26.30;60.00
39519;DHT22;25200;53.394;10.414;2023-07-13T10:17:12;26.50;59.50
39519;DHT22;25200;53.394;10.414;2023-07-13T10:19:41;26.70;59.00
39519;DHT22;25200;53.394;10.414;2023-07-13T10:24:44;27.20;59.20
39519;DHT22;25200;53.394;10.414;2023-07-13T10:29:50;27.70;58.90
39519;DHT22;25200;53.394;10.414;2023-07-13T10:32:19;27.80;58.90
39519;DHT22;25200;53.394;10.414;2023-07-13T10:34:46;27.90;58.60
39519;DHT22;25200;53.394;10.414;2023-07-13T10:37:19;27.80;58.00
39519;DHT22;25200;53.394;10.414;2023-07-13T10:39:46;27.50;57.20
39519;DHT22;25200;53.394;10.414;2023-07-13T10:42:15;27.10;57.10
39519;DHT22;25200;53.394;10.414;2023-07-13T10:44:47;27.00;57.60
39519;DHT22;25200;53.394;10.414;2023-07-13T10:47:15;27.10;58.10
39519;DHT22;25200;53.394;10.414;2023-07-13T10:49:42;27.20;58.00
39519;DHT22;25200;53.394;10.414;2023-07-13T10:52:44;27.20;57.40
39519;DHT22;25200;53.394;10.414;2023-07-13T10:55:31;27.10;57.00
39519;DHT22;25200;53.394;10.414;2023-07-13T10:58:01;27.00;57.60
39519;DHT22;25200;53.394;10.414;2023-07-13T11:00:31;26.90;57.60
39519;DHT22;25200;53.394;10.414;2023-07-13T11:02:59;27.00;57.90
39519;DHT22;25200;53.394;10.414;2023-07-13T11:05:31;27.10;57.80
39519;DHT22;25200;53.394;10.414;2023-07-13T11:10:49;26.90;56.90
39519;DHT22;25200;53.394;10.414;2023-07-13T11:13:36;26.60;56.80
39519;DHT22;25200;53.394;10.414;2023-07-13T11:16:13;26.40;56.80
39519;DHT22;25200;53.394;10.414;2023-07-13T11:18:39;26.10;56.60
39519;DHT22;25200;53.394;10.414;2023-07-13T11:21:31;25.90;56.50
39519;DHT22;25200;53.394;10.414;2023-07-13T11:24:17;25.70;57.10
39519;DHT22;25200;53.394;10.414;2023-07-13T11:31:51;27.00;58.50
39519;DHT22;25200;53.394;10.414;2023-07-13T11:34:21;27.30;57.90
39519;DHT22;25200;53.394;10.414;2023-07-13T11:36:49;27.30;56.90
39519;DHT22;25200;53.394;10.414;2023-07-13T11:39:33;27.50;57.30
39519;DHT22;25200;53.394;10.414;2023-07-13T11:42:03;27.80;57.10
39519;DHT22;25200;53.394;10.414;2023-07-13T11:44:32;28.00;57.20
39519;DHT22;25200;53.394;10.414;2023-07-13T11:47:00;28.40;57.20
39519;DHT22;25200;53.394;10.414;2023-07-13T11:49:43;28.70;56.40
39519;DHT22;25200;53.394;10.414;2023-07-13T11:52:16;28.90;56.40
39519;DHT22;25200;53.394;10.414;2023-07-13T11:59:50;29.20;55.90
39519;DHT22;25200;53.394;10.414;2023-07-13T12:02:29;29.00;55.50
39519;DHT22;25200;53.394;10.414;2023-07-13T12:04:55;29.00;56.10
39519;DHT22;25200;53.394;10.414;2023-07-13T12:07:22;29.10;56.50
39519;DHT22;25200;53.394;10.414;2023-07-13T12:09:48;29.10;55.40
39519;DHT22;25200;53.394;10.414;2023-07-13T12:12:22;29.00;55.40
39519;DHT22;25200;53.394;10.414;2023-07-13T12:14:51;28.80;55.30
39519;DHT22;25200;53.394;10.414;2023-07-13T12:17:23;28.70;55.50
39519;DHT22;25200;53.394;10.414;2023-07-13T12:19:50;28.70;56.10
39519;DHT22;25200;53.394;10.414;2023-07-13T12:22:17;29.00;55.70
39519;DHT22;25200;53.394;10.414;2023-07-13T12:24:44;29.20;55.90
39519;DHT22;25200;53.394;10.414;2023-07-13T12:29:50;29.00;55.40
39519;DHT22;25200;53.394;10.414;2023-07-13T12:32:19;28.90;55.10
39519;DHT22;25200;53.394;10.414;2023-07-13T12:34:57;28.80;55.20
39519;DHT22;25200;53.394;10.414;2023-07-13T12:37:24;28.90;55.80
39519;DHT22;25200;53.394;10.414;2023-07-13T12:39:51;29.10;55.80
39519;DHT22;25200;53.394;10.414;2023-07-13T12:42:28;29.40;55.70
39519;DHT22;25200;53.394;10.414;2023-07-13T12:45:16;29.60;55.50
39519;DHT22;25200;53.394;10.414;2023-07-13T12:47:44;29.60;55.00
39519;DHT22;25200;53.394;10.414;2023-07-13T12:50:17;29.30;54.50
39519;DHT22;25200;53.394;10.414;2023-07-13T12:52:43;28.90;53.70
39519;DHT22;25200;53.394;10.414;2023-07-13T12:55:16;28.60;53.90
39519;DHT22;25200;53.394;10.414;2023-07-13T12:57:55;28.10;53.00
39519;DHT22;25200;53.394;10.414;2023-07-13T13:00:28;27.40;53.70
39519;DHT22;25200;53.394;10.414;2023-07-13T13:02:56;26.80;53.90
39519;DHT22;25200;53.394;10.414;2023-07-13T13:05:22;26.30;55.00
39519;DHT22;25200;53.394;10.414;2023-07-13T13:07:50;25.80;55.40
39519;DHT22;25200;53.394;10.414;2023-07-13T13:10:16;25.50;55.90
39519;DHT22;25200;53.394;10.414;2023-07-13T13:12:42;25.20;56.20
39519;DHT22;25200;53.394;10.414;2023-07-13T13:15:09;24.90;56.70
39519;DHT22;25200;53.394;10.414;2023-07-13T13:17:35;24.70;56.90
39519;DHT22;25200;53.394;10.414;2023-07-13T13:20:01;24.50;57.20
39519;DHT22;25200;53.394;10.414;2023-07-13T13:22:27;24.30;57.40
39519;DHT22;25200;53.394;10.414;2023-07-13T13:24:52;24.10;57.50
39519;DHT22;25200;53.394;10.414;2023-07-13T13:27:20;24.00;57.80
39519;DHT22;25200;53.394;10.414;2023-07-13T13:29:47;23.90;58.00
39519;DHT22;25200;53.394;10.414;2023-07-13T13:32:15;23.80;58.10
39519;DHT22;25200;53.394;10.414;2023-07-13T13:34:41;23.70;58.40
39519;DHT22;25200;53.394;10.414;2023-07-13T13:37:22;23.60;58.40
39519;DHT22;25200;53.394;10.414;2023-07-13T13:39:49;23.60;58.70
39519;DHT22;25200;53.394;10.414;2023-07-13T13:42:15;23.60;58.90
39519;DHT22;25200;53.394;10.414;2023-07-13T13:44:40;23.60;59.10
39519;DHT22;25200;53.394;10.414;2023-07-13T13:47:27;23.60;59.10
39519;DHT22;25200;53.394;10.414;2023-07-13T13:49:54;23.70;59.30
39519;DHT22;25200;53.394;10.414;2023-07-13T13:52:20;23.70;59.30
39519;DHT22;25200;53.394;10.414;2023-07-13T13:54:46;23.80;59.40
39519;DHT22;25200;53.394;10.414;2023-07-13T13:57:11;23.90;59.50
39519;DHT22;25200;53.394;10.414;2023-07-13T13:59:38;24.00;59.70
39519;DHT22;25200;53.394;10.414;2023-07-13T14:02:27;24.10;59.70
39519;DHT22;25200;53.394;10.414;2023-07-13T14:04:59;24.30;59.50
39519;DHT22;25200;53.394;10.414;2023-07-13T14:07:26;24.30;59.50
39519;DHT22;25200;53.394;10.414;2023-07-13T14:09:54;24.50;59.50
39519;DHT22;25200;53.394;10.414;2023-07-13T14:12:20;24.60;59.50
39519;DHT22;25200;53.394;10.414;2023-07-13T14:14:46;24.60;59.30
39519;DHT22;25200;53.394;10.414;2023-07-13T14:17:21;24.60;59.30
39519;DHT22;25200;53.394;10.414;2023-07-13T14:19:51;24.50;59.20
39519;DHT22;25200;53.394;10.414;2023-07-13T14:22:17;24.50;59.20
39519;DHT22;25200;53.394;10.414;2023-07-13T14:24:43;24.40;59.20
39519;DHT22;25200;53.394;10.414;2023-07-13T14:27:11;24.40;59.40
39519;DHT22;25200;53.394;10.414;2023-07-13T14:29:37;24.40;59.40
39519;DHT22;25200;53.394;10.414;2023-07-13T14:32:03;24.40;59.40
39519;DHT22;25200;53.394;10.414;2023-07-13T14:34:30;24.40;59.40
39519;DHT22;25200;53.394;10.414;2023-07-13T14:36:56;24.30;59.30
39519;DHT22;25200;53.394;10.414;2023-07-13T14:39:24;24.30;59.40
39519;DHT22;25200;53.394;10.414;2023-07-13T14:41:52;24.20;59.40
39519;DHT22;25200;53.394;10.414;2023-07-13T14:44:23;24.20;59.50
39519;DHT22;25200;53.394;10.414;2023-07-13T14:46:50;24.00;59.60
39519;DHT22;25200;53.394;10.414;2023-07-13T14:49:32;23.90;59.70
39519;DHT22;25200;53.394;10.414;2023-07-13T14:52:01;23.80;59.90
39519;DHT22;25200;53.394;10.414;2023-07-13T14:54:29;23.70;59.90
39519;DHT22;25200;53.394;10.414;2023-07-13T14:56:54;23.70;60.20
39519;DHT22;25200;53.394;10.414;2023-07-13T14:59:20;23.60;60.20
39519;DHT22;25200;53.394;10.414;2023-07-13T15:01:46;23.50;60.40
39519;DHT22;25200;53.394;10.414;2023-07-13T15:04:13;23.50;60.40
39519;DHT22;25200;53.394;10.414;2023-07-13T15:06:59;23.40;60.50
39519;DHT22;25200;53.394;10.414;2023-07-13T15:09:26;23.30;60.50
39519;DHT22;25200;53.394;10.414;2023-07-13T15:11:56;23.30;60.70
39519;DHT22;25200;53.394;10.414;2023-07-13T15:14:22;23.20;60.60
39519;DHT22;25200;53.394;10.414;2023-07-13T15:16:51;23.30;60.80
39519;DHT22;25200;53.394;10.414;2023-07-13T15:19:17;23.20;60.70
39519;DHT22;25200;53.394;10.414;2023-07-13T15:21:43;23.20;60.90
39519;DHT22;25200;53.394;10.414;2023-07-13T15:24:10;23.20;60.80
39519;DHT22;25200;53.394;10.414;2023-07-13T15:26:36;23.20;60.80
39519;DHT22;25200;53.394;10.414;2023-07-13T15:29:03;23.20;60.90
39519;DHT22;25200;53.394;10.414;2023-07-13T15:31:28;23.20;61.00
39519;DHT22;25200;53.394;10.414;2023-07-13T15:33:57;23.20;61.00
39519;DHT22;25200;53.394;10.414;2023-07-13T15:36:24;23.10;60.80
39519;DHT22;25200;53.394;10.414;2023-07-13T15:38:53;23.10;60.90
39519;DHT22;25200;53.394;10.414;2023-07-13T15:41:25;23.10;61.00
39519;DHT22;25200;53.394;10.414;2023-07-13T15:43:56;23.20;60.90
39519;DHT22;25200;53.394;10.414;2023-07-13T15:46:27;23.20;61.10
39519;DHT22;25200;53.394;10.414;2023-07-13T15:48:54;23.20;61.00
39519;DHT22;25200;53.394;10.414;2023-07-13T15:51:29;23.30;61.30
39519;DHT22;25200;53.394;10.414;2023-07-13T15:53:58;23.30;61.00
39519;DHT22;25200;53.394;10.414;2023-07-13T15:56:27;23.20;61.00
39519;DHT22;25200;53.394;10.414;2023-07-13T15:58:55;23.20;60.90
39519;DHT22;25200;53.394;10.414;2023-07-13T16:01:22;23.10;60.90
39519;DHT22;25200;53.394;10.414;2023-07-13T16:03:49;23.00;61.20